createdAt,value
2019-05-03T00:00:46.178Z,66.06
2019-05-03T00:03:12.470Z,66.43
2019-05-03T00:05:38.776Z,66.46
2019-05-03T00:08:05.169Z,66.59
2019-05-03T00:10:31.857Z,66.55
2019-05-03T00:12:57.798Z,66.78
2019-05-03T00:15:24.120Z,67.02
2019-05-03T00:17:50.422Z,67.08
2019-05-03T00:20:16.753Z,67.09
2019-05-03T00:22:43.055Z,67.06
2019-05-03T00:25:09.367Z,67.19
2019-05-03T00:27:35.690Z,67.29
2019-05-03T00:30:02.880Z,67.27
2019-05-03T00:32:28.360Z,67.27
2019-05-03T00:34:54.672Z,67.29
2019-05-03T00:37:22.097Z,67.58
2019-05-03T00:39:47.297Z,67.81
2019-05-03T00:42:13.646Z,68.06
2019-05-03T00:44:39.967Z,68.44
2019-05-03T00:47:06.272Z,68.89
2019-05-03T00:49:32.596Z,69.05
2019-05-03T00:51:58.895Z,69.12
2019-05-03T00:54:25.221Z,69.21
2019-05-03T00:56:52.254Z,69.35
2019-05-03T00:59:17.849Z,69.63
2019-05-03T01:01:44.158Z,69.96
2019-05-03T01:04:11.813Z,69.88
2019-05-03T01:06:36.851Z,70.07
2019-05-03T01:09:03.157Z,70.30
2019-05-03T01:11:29.479Z,70.40
2019-05-03T01:13:55.783Z,70.42
2019-05-03T01:16:22.678Z,70.26
2019-05-03T01:18:48.408Z,69.99
2019-05-03T01:21:14.738Z,70.49
2019-05-03T01:23:42.010Z,70.34
2019-05-03T01:26:07.358Z,70.62
2019-05-03T01:28:33.687Z,70.55
2019-05-03T01:30:59.992Z,70.66
2019-05-03T01:33:26.299Z,70.71
2019-05-03T01:35:52.631Z,70.95
2019-05-03T01:38:19.505Z,70.99
2019-05-03T01:40:45.263Z,71.24
2019-05-03T01:43:11.767Z,71.53
2019-05-03T01:45:37.884Z,71.72
2019-05-03T01:48:04.215Z,71.91
2019-05-03T01:50:32.013Z,72.11
2019-05-03T01:52:56.887Z,72.31
2019-05-03T01:55:23.193Z,72.35
2019-05-03T01:57:49.524Z,72.82
2019-05-03T02:00:15.829Z,73.11
2019-05-03T02:02:42.136Z,72.89
2019-05-03T02:05:08.455Z,72.85
2019-05-03T02:07:34.759Z,73.10
2019-05-03T02:10:02.799Z,73.53
2019-05-03T02:12:27.411Z,73.80
2019-05-03T02:14:53.714Z,73.55
2019-05-03T02:17:20.039Z,73.34
2019-05-03T02:19:46.345Z,73.58
2019-05-03T02:22:12.665Z,73.79
2019-05-03T02:24:38.994Z,73.77
2019-05-03T02:27:05.304Z,73.71
2019-05-03T02:29:32.555Z,73.91
2019-05-03T02:31:57.958Z,73.88
2019-05-03T02:34:24.290Z,74.01
2019-05-03T02:36:53.492Z,73.58
2019-05-03T02:39:16.920Z,73.67
2019-05-03T02:41:47.893Z,73.80
2019-05-03T02:44:09.559Z,73.56
2019-05-03T02:46:36.277Z,73.36
2019-05-03T02:49:02.183Z,73.93
2019-05-03T02:51:28.487Z,74.20
2019-05-03T02:53:57.059Z,74.50
2019-05-03T02:56:22.281Z,74.82
2019-05-03T02:58:47.436Z,75.46
2019-05-03T03:01:16.248Z,75.02
2019-05-03T03:03:40.070Z,74.75
2019-05-03T03:06:06.895Z,74.85
2019-05-03T03:08:33.406Z,75.28
2019-05-03T03:10:59.023Z,75.41
2019-05-03T03:13:25.603Z,75.29
2019-05-03T03:15:51.656Z,75.23
2019-05-03T03:18:17.956Z,75.73
2019-05-03T03:20:45.005Z,76.15
2019-05-03T03:23:14.267Z,76.14
2019-05-03T03:25:36.884Z,75.84
2019-05-03T03:28:05.307Z,75.78
2019-05-03T03:30:29.889Z,75.73
2019-05-03T03:32:57.709Z,75.19
2019-05-03T03:35:22.657Z,75.28
2019-05-03T03:37:48.543Z,75.83
2019-05-03T03:40:16.049Z,76.13
2019-05-03T03:42:41.164Z,76.46
2019-05-03T03:45:07.508Z,76.33
2019-05-03T03:47:35.846Z,76.39
2019-05-03T03:50:00.126Z,76.59
2019-05-03T03:52:26.435Z,77.06
2019-05-03T03:54:55.256Z,77.28
2019-05-03T03:57:19.060Z,77.40
2019-05-03T03:59:45.665Z,77.51
2019-05-03T04:02:11.686Z,77.97
2019-05-03T04:04:38.024Z,77.88
2019-05-03T04:07:06.631Z,77.69
2019-05-03T04:09:30.671Z,77.62
2019-05-03T04:11:57.090Z,77.67
2019-05-03T04:14:25.384Z,77.43
2019-05-03T04:16:49.626Z,76.85
2019-05-03T04:19:17.455Z,76.44
2019-05-03T04:21:42.262Z,76.62
2019-05-03T04:24:08.572Z,76.52
2019-05-03T04:26:35.786Z,76.52
2019-05-03T04:29:01.195Z,77.21
2019-05-03T04:31:27.522Z,77.16
2019-05-03T04:33:56.291Z,77.20
2019-05-03T04:36:20.158Z,76.62
2019-05-03T04:38:46.482Z,76.98
2019-05-03T04:41:15.669Z,77.01
2019-05-03T04:43:39.119Z,77.07
2019-05-03T04:46:06.562Z,76.82
2019-05-03T04:48:31.754Z,78.52
2019-05-03T04:50:58.056Z,95.49
2019-05-03T04:53:25.960Z,94.09
2019-05-03T04:55:50.704Z,100.00
2019-05-03T04:58:17.023Z,100.00
2019-05-03T05:00:46.287Z,100.00
2019-05-03T05:03:09.663Z,100.00
2019-05-03T05:05:36.461Z,91.72
2019-05-03T05:08:02.294Z,88.21
2019-05-03T05:10:28.620Z,85.92
2019-05-03T05:12:55.210Z,84.72
2019-05-03T05:15:21.248Z,84.83
2019-05-03T05:17:47.567Z,85.68
2019-05-03T05:20:14.483Z,86.50
2019-05-03T05:22:40.237Z,87.10
2019-05-03T05:25:06.543Z,85.53
2019-05-03T05:27:34.635Z,86.22
2019-05-03T05:29:59.182Z,86.53
2019-05-03T05:32:25.474Z,85.54
2019-05-03T05:34:51.828Z,86.24
2019-05-03T05:37:18.151Z,85.82
2019-05-03T05:39:44.788Z,86.17
2019-05-03T05:42:10.788Z,86.64
2019-05-03T05:44:37.100Z,86.84
2019-05-03T05:47:04.696Z,85.74
2019-05-03T05:49:29.720Z,85.56
2019-05-03T05:51:56.052Z,85.99
2019-05-03T05:54:22.352Z,89.06
2019-05-03T05:56:48.658Z,94.05
2019-05-03T05:59:15.008Z,91.52
2019-05-03T06:01:41.290Z,90.92
2019-05-03T06:04:09.934Z,90.84
2019-05-03T06:06:34.804Z,89.60
2019-05-03T06:09:00.245Z,89.05
2019-05-03T06:11:26.552Z,88.42
2019-05-03T06:13:54.516Z,88.33
2019-05-03T06:16:19.242Z,88.48
2019-05-03T06:18:45.544Z,88.99
2019-05-03T06:21:11.881Z,89.25
2019-05-03T06:23:38.184Z,89.82
2019-05-03T06:26:04.963Z,89.17
2019-05-03T06:28:30.819Z,87.84
2019-05-03T06:30:57.146Z,86.80
2019-05-03T06:33:24.492Z,86.77
2019-05-03T06:35:49.759Z,87.21
2019-05-03T06:38:16.081Z,87.09
2019-05-03T06:40:44.337Z,85.98
2019-05-03T06:43:12.646Z,85.69
2019-05-03T06:45:35.407Z,84.15
2019-05-03T06:48:01.349Z,84.42
2019-05-03T06:50:28.952Z,84.42
2019-05-03T06:52:54.820Z,83.73
2019-05-03T06:55:20.288Z,82.93
2019-05-03T06:57:49.569Z,82.31
2019-05-03T07:00:12.913Z,82.51
2019-05-03T07:02:39.279Z,83.10
2019-05-03T07:05:05.584Z,83.60
2019-05-03T07:07:31.906Z,84.67
2019-05-03T07:09:58.216Z,85.11
2019-05-03T07:12:25.004Z,85.60
2019-05-03T07:14:50.866Z,84.49
2019-05-03T07:17:17.175Z,83.98
2019-05-03T07:19:43.497Z,81.83
2019-05-03T07:22:09.803Z,83.17
2019-05-03T07:24:40.668Z,84.30
2019-05-03T07:27:02.471Z,83.23
2019-05-03T07:29:28.775Z,82.06
2019-05-03T07:31:55.098Z,81.24
2019-05-03T07:34:21.417Z,79.68
2019-05-03T07:36:47.721Z,81.30
2019-05-03T07:39:14.581Z,81.25
2019-05-03T07:41:40.357Z,75.60
2019-05-03T07:44:06.694Z,72.36
2019-05-03T07:46:34.741Z,72.95
2019-05-03T07:48:59.328Z,75.12
2019-05-03T07:51:25.633Z,72.67
2019-05-03T07:53:51.935Z,76.40
2019-05-03T07:56:18.273Z,78.02
2019-05-03T07:58:46.197Z,77.97
2019-05-03T08:01:10.922Z,77.83
2019-05-03T08:03:37.239Z,77.89
2019-05-03T08:06:04.769Z,77.09
2019-05-03T08:08:29.938Z,77.56
2019-05-03T08:10:56.242Z,76.24
2019-05-03T08:13:22.547Z,77.88
2019-05-03T08:15:49.008Z,79.25
2019-05-03T08:18:15.583Z,80.27
2019-05-03T08:20:41.679Z,77.37
2019-05-03T08:23:07.985Z,75.26
2019-05-03T08:25:35.463Z,75.07
2019-05-03T08:28:00.663Z,76.06
2019-05-03T08:30:27.107Z,75.68
2019-05-03T08:32:54.902Z,75.82
2019-05-03T08:35:19.867Z,72.00
2019-05-03T08:37:46.200Z,69.32
2019-05-03T08:40:12.497Z,70.54
2019-05-03T08:42:38.836Z,70.28
2019-05-03T08:45:07.906Z,73.87
2019-05-03T08:47:31.468Z,73.93
2019-05-03T08:49:57.775Z,73.63
2019-05-03T08:52:24.780Z,70.56
2019-05-03T08:54:50.495Z,67.11
2019-05-03T08:57:16.805Z,67.65
2019-05-03T08:59:45.773Z,67.11
2019-05-03T09:02:17.654Z,66.88
2019-05-03T09:04:42.682Z,68.83
2019-05-03T09:07:05.471Z,70.58
2019-05-03T09:09:31.680Z,71.86
2019-05-03T09:11:58.005Z,73.32
2019-05-03T09:14:24.566Z,73.31
2019-05-03T09:16:50.665Z,72.64
2019-05-03T09:19:16.978Z,71.91
2019-05-03T09:21:45.271Z,72.04
2019-05-03T09:24:09.642Z,71.62
2019-05-03T09:26:35.955Z,71.23
2019-05-03T09:29:02.273Z,70.85
2019-05-03T09:31:28.652Z,71.01
2019-05-03T09:33:55.108Z,70.17
2019-05-03T09:36:21.300Z,68.69
2019-05-03T09:38:47.608Z,64.68
2019-05-03T09:41:15.006Z,64.95
2019-05-03T09:43:40.240Z,65.06
2019-05-03T09:46:06.568Z,63.38
2019-05-03T09:48:34.672Z,62.99
2019-05-03T09:50:59.180Z,61.65
2019-05-03T09:53:25.695Z,61.56
2019-05-03T09:55:51.827Z,62.48
2019-05-03T09:58:18.199Z,63.33
2019-05-03T10:00:44.673Z,63.18
2019-05-03T10:03:10.788Z,63.69
2019-05-03T10:05:37.104Z,62.35
2019-05-03T10:08:05.105Z,58.21
2019-05-03T10:10:30.184Z,58.13
2019-05-03T10:12:56.500Z,58.84
2019-05-03T10:15:22.834Z,58.99
2019-05-03T10:17:49.150Z,58.69
2019-05-03T10:20:15.506Z,58.10
2019-05-03T10:22:41.793Z,57.34
2019-05-03T10:25:08.154Z,57.46
2019-05-03T10:27:34.757Z,58.32
2019-05-03T10:30:12.353Z,58.51
2019-05-03T10:32:27.269Z,58.84
2019-05-03T10:34:53.575Z,58.54
2019-05-03T10:37:19.909Z,59.51
2019-05-03T10:39:46.253Z,58.96
2019-05-03T10:42:12.560Z,54.05
2019-05-03T10:44:38.891Z,52.18
2019-05-03T10:47:05.594Z,53.26
2019-05-03T10:49:31.501Z,52.23
2019-05-03T10:51:57.827Z,52.87
2019-05-03T10:54:24.137Z,53.54
2019-05-03T10:56:50.464Z,53.29
2019-05-03T10:59:16.805Z,52.78
2019-05-03T11:01:45.128Z,52.13
2019-05-03T11:04:09.432Z,51.47
2019-05-03T11:06:35.765Z,49.89
2019-05-03T11:09:02.096Z,48.42
2019-05-03T11:11:28.414Z,48.65
2019-05-03T11:13:54.744Z,49.86
2019-05-03T11:16:21.057Z,49.57
2019-05-03T11:18:47.439Z,49.45
2019-05-03T11:21:14.440Z,48.29
2019-05-03T11:23:40.056Z,47.96
2019-05-03T11:26:06.361Z,47.48
2019-05-03T11:28:32.665Z,46.84
2019-05-03T11:31:02.271Z,47.17
2019-05-03T11:33:25.316Z,46.84
2019-05-03T11:35:51.649Z,46.11
2019-05-03T11:38:18.342Z,46.68
2019-05-03T11:40:45.484Z,46.14
2019-05-03T11:43:10.594Z,46.54
2019-05-03T11:45:36.919Z,46.49
2019-05-03T11:48:03.249Z,46.73
2019-05-03T11:50:29.597Z,46.47
2019-05-03T11:52:55.915Z,45.27
2019-05-03T11:55:22.272Z,45.17
2019-05-03T11:57:48.600Z,43.79
2019-05-03T12:00:14.922Z,43.39
2019-05-03T12:02:41.231Z,43.54
2019-05-03T12:05:07.558Z,43.39
2019-05-03T12:07:39.766Z,42.01
2019-05-03T12:10:00.282Z,42.53
2019-05-03T12:12:29.388Z,42.98
2019-05-03T12:14:54.796Z,41.34
2019-05-03T12:17:26.059Z,40.57
2019-05-03T12:19:47.374Z,40.54
2019-05-03T12:22:12.314Z,39.92
2019-05-03T12:24:38.819Z,40.36
2019-05-03T12:27:04.769Z,40.75
2019-05-03T12:29:30.812Z,40.63
2019-05-03T12:31:57.153Z,40.38
2019-05-03T12:34:25.621Z,40.09
2019-05-03T12:36:51.439Z,38.98
2019-05-03T12:39:26.302Z,38.33
2019-05-03T12:41:42.466Z,37.63
2019-05-03T12:44:08.774Z,38.42
2019-05-03T12:46:35.410Z,37.92
2019-05-03T12:49:01.458Z,37.10
2019-05-03T12:51:27.761Z,36.28
2019-05-03T12:53:55.171Z,37.04
2019-05-03T12:56:23.826Z,36.79
2019-05-03T12:58:46.777Z,37.62
2019-05-03T13:01:13.086Z,37.13
2019-05-03T13:03:39.415Z,38.17
2019-05-03T13:06:07.417Z,37.63
2019-05-03T13:08:32.044Z,37.28
2019-05-03T13:10:58.408Z,36.96
2019-05-03T13:13:25.009Z,36.91
2019-05-03T13:15:51.021Z,35.84
2019-05-03T13:18:17.351Z,36.03
2019-05-03T13:20:45.342Z,36.33
2019-05-03T13:23:12.822Z,36.13
2019-05-03T13:25:36.309Z,35.61
2019-05-03T13:28:02.623Z,35.71
2019-05-03T13:30:28.952Z,34.90
2019-05-03T13:32:55.261Z,34.75
2019-05-03T13:35:21.588Z,35.61
2019-05-03T13:37:47.897Z,36.88
2019-05-03T13:40:14.222Z,37.15
2019-05-03T13:42:53.048Z,35.61
2019-05-03T13:45:06.836Z,34.82
2019-05-03T13:47:34.924Z,34.41
2019-05-03T13:49:59.466Z,35.06
2019-05-03T13:52:25.801Z,35.30
2019-05-03T13:54:52.227Z,35.29
2019-05-03T13:57:18.517Z,35.23
2019-05-03T13:59:44.956Z,36.41
2019-05-03T14:02:15.543Z,41.55
2019-05-03T14:04:49.311Z,41.14
2019-05-03T14:07:04.657Z,38.25
2019-05-03T14:09:30.114Z,39.94
2019-05-03T14:11:56.421Z,39.26
2019-05-03T14:14:22.755Z,38.79
2019-05-03T14:16:49.066Z,38.90
2019-05-03T14:19:15.405Z,40.12
2019-05-03T14:21:41.710Z,39.76
2019-05-03T14:24:08.027Z,38.81
2019-05-03T14:26:35.115Z,39.20
2019-05-03T14:29:00.664Z,39.11
2019-05-03T14:31:26.990Z,35.30
2019-05-03T14:33:55.632Z,37.06
2019-05-03T14:36:19.619Z,37.01
2019-05-03T14:38:47.054Z,35.37
2019-05-03T14:41:14.690Z,36.11
2019-05-03T14:43:38.593Z,34.86
2019-05-03T14:46:05.619Z,35.60
2019-05-03T14:48:31.220Z,37.04
2019-05-03T14:50:57.599Z,36.68
2019-05-03T14:53:25.424Z,34.13
2019-05-03T14:55:50.182Z,32.53
2019-05-03T14:58:17.537Z,32.69
2019-05-03T15:00:45.048Z,32.64
2019-05-03T15:03:09.160Z,34.15
2019-05-03T15:05:35.498Z,34.34
2019-05-03T15:08:01.830Z,35.70
2019-05-03T15:10:28.138Z,35.56
2019-05-03T15:12:55.639Z,35.32
2019-05-03T15:15:20.765Z,35.15
2019-05-03T15:17:47.107Z,34.83
2019-05-03T15:20:14.762Z,34.48
2019-05-03T15:22:40.772Z,34.05
2019-05-03T15:25:09.230Z,33.88
2019-05-03T15:27:35.506Z,33.97
2019-05-03T15:30:04.847Z,34.30
2019-05-03T15:32:29.984Z,34.73
2019-05-03T15:34:56.316Z,35.31
2019-05-03T15:37:22.628Z,35.90
2019-05-03T15:39:48.956Z,36.61
2019-05-03T15:42:15.278Z,37.17
2019-05-03T15:44:41.588Z,37.61
2019-05-03T15:47:09.528Z,37.85
2019-05-03T15:49:35.670Z,37.86
2019-05-03T15:52:00.729Z,38.17
2019-05-03T15:54:26.983Z,38.33
2019-05-03T15:56:54.379Z,38.77
2019-05-03T15:59:19.623Z,38.52
2019-05-03T16:01:45.948Z,38.79
2019-05-03T16:04:14.229Z,39.04
2019-05-03T16:06:38.598Z,39.20
2019-05-03T16:09:04.915Z,39.47
2019-05-03T16:11:31.290Z,39.66
2019-05-03T16:13:58.447Z,39.44
2019-05-03T16:16:24.969Z,39.73
2019-05-03T16:18:51.034Z,39.89
2019-05-03T16:21:17.341Z,41.92
2019-05-03T16:23:46.357Z,43.19
2019-05-03T16:26:10.193Z,43.37
2019-05-03T16:28:36.530Z,43.38
2019-05-03T16:31:02.864Z,43.17
2019-05-03T16:33:29.257Z,43.47
2019-05-03T16:35:55.573Z,43.03
2019-05-03T16:38:21.915Z,43.00
2019-05-03T16:40:48.360Z,43.72
2019-05-03T16:43:16.224Z,42.60
2019-05-03T16:45:41.634Z,42.66
2019-05-03T16:48:07.934Z,42.82
2019-05-03T16:50:34.616Z,42.88
2019-05-03T16:53:00.568Z,42.68
2019-05-03T16:55:26.910Z,43.13
2019-05-03T16:57:54.819Z,43.56
2019-05-03T17:00:19.545Z,43.51
2019-05-03T17:02:45.888Z,43.29
2019-05-03T17:05:14.268Z,43.04
2019-05-03T17:07:38.535Z,43.41
2019-05-03T17:10:07.268Z,43.18
2019-05-03T17:12:31.190Z,43.18
2019-05-03T17:14:57.575Z,43.08
2019-05-03T17:17:25.196Z,42.78
2019-05-03T17:19:50.198Z,42.86
2019-05-03T17:22:17.444Z,42.21
2019-05-03T17:24:44.434Z,42.69
2019-05-03T17:27:09.184Z,42.62
2019-05-03T17:29:35.656Z,42.82
2019-05-03T17:32:01.984Z,42.04
2019-05-03T17:34:28.288Z,42.24
2019-05-03T17:36:54.663Z,41.88
2019-05-03T17:39:20.988Z,42.37
2019-05-03T17:41:47.299Z,42.40
2019-05-03T17:44:14.437Z,42.62
2019-05-03T17:46:39.951Z,43.07
2019-05-03T17:49:06.267Z,43.10
2019-05-03T17:51:32.590Z,43.10
2019-05-03T17:53:58.894Z,42.84
2019-05-03T17:56:25.236Z,42.84
2019-05-03T17:58:51.560Z,42.86
2019-05-03T18:01:17.882Z,42.96
2019-05-03T18:03:44.889Z,43.31
2019-05-03T18:06:10.526Z,43.74
2019-05-03T18:08:36.856Z,43.73
2019-05-03T18:11:04.539Z,43.88
2019-05-03T18:13:29.509Z,44.01
2019-05-03T18:15:55.820Z,43.98
2019-05-03T18:18:24.725Z,43.99
2019-05-03T18:20:48.464Z,44.12
2019-05-03T18:23:15.356Z,44.04
2019-05-03T18:25:41.188Z,44.21
2019-05-03T18:28:07.520Z,44.12
2019-05-03T18:30:34.894Z,44.26
2019-05-03T18:33:00.165Z,44.38
2019-05-03T18:35:26.475Z,44.17
2019-05-03T18:37:54.612Z,44.17
2019-05-03T18:40:19.125Z,44.15
2019-05-03T18:42:45.435Z,44.17
2019-05-03T18:45:11.766Z,44.32
2019-05-03T18:47:38.089Z,44.46
2019-05-03T18:50:04.428Z,44.75
2019-05-03T18:52:30.757Z,44.70
2019-05-03T18:54:58.195Z,44.87
2019-05-03T18:57:25.448Z,45.04
2019-05-03T18:59:50.026Z,45.37
2019-05-03T19:02:16.391Z,45.28
2019-05-03T19:04:45.035Z,45.30
2019-05-03T19:07:09.070Z,45.37
2019-05-03T19:09:35.405Z,45.11
2019-05-03T19:12:01.825Z,45.01
2019-05-03T19:14:28.092Z,44.87
2019-05-03T19:16:55.203Z,44.51
2019-05-03T19:19:21.528Z,44.47
2019-05-03T19:21:47.995Z,44.60
2019-05-03T19:24:15.194Z,45.07
2019-05-03T19:26:40.654Z,46.56
2019-05-03T19:29:07.031Z,46.51
2019-05-03T19:31:35.497Z,46.16
2019-05-03T19:33:59.669Z,45.51
2019-05-03T19:36:26.032Z,45.60
2019-05-03T19:38:54.515Z,45.34
2019-05-03T19:41:18.760Z,44.97
2019-05-03T19:43:45.097Z,44.83
2019-05-03T19:46:11.557Z,44.79
2019-05-03T19:48:38.107Z,44.87
2019-05-03T19:51:08.365Z,44.66
2019-05-03T19:53:35.958Z,44.87
2019-05-03T19:56:01.078Z,44.74
2019-05-03T19:58:27.401Z,44.78
2019-05-03T20:00:54.870Z,44.85
2019-05-03T20:03:20.045Z,44.83
2019-05-03T20:05:46.373Z,44.89
2019-05-03T20:08:12.682Z,44.77
2019-05-03T20:10:39.016Z,44.52
2019-05-03T20:13:05.316Z,44.59
2019-05-03T20:15:32.812Z,44.52
2019-05-03T20:18:00.252Z,44.51
2019-05-03T20:20:25.430Z,43.97
2019-05-03T20:22:51.795Z,43.38
2019-05-03T20:25:18.131Z,43.15
2019-05-03T20:27:44.657Z,43.15
2019-05-03T20:30:10.775Z,43.14
2019-05-03T20:32:37.105Z,43.31
2019-05-03T20:35:14.597Z,43.52
2019-05-03T20:37:29.757Z,44.10
2019-05-03T20:39:56.083Z,44.49
2019-05-03T20:42:24.278Z,44.80
2019-05-03T20:44:48.752Z,44.97
2019-05-03T20:47:15.052Z,45.35
2019-05-03T20:49:41.384Z,45.53
2019-05-03T20:52:07.688Z,45.60
2019-05-03T20:54:34.969Z,45.86
2019-05-03T20:57:00.335Z,46.32
2019-05-03T20:59:26.671Z,45.95
2019-05-03T21:01:54.601Z,45.92
2019-05-03T21:04:19.322Z,45.99
2019-05-03T21:06:45.729Z,46.22
2019-05-03T21:09:11.973Z,46.53
2019-05-03T21:11:38.284Z,46.81
2019-05-03T21:14:04.819Z,46.97
2019-05-03T21:16:30.934Z,47.04
2019-05-03T21:18:57.321Z,47.29
2019-05-03T21:21:25.170Z,47.53
2019-05-03T21:23:49.944Z,47.76
2019-05-03T21:26:16.755Z,48.03
2019-05-03T21:28:42.581Z,48.24
2019-05-03T21:31:08.910Z,48.37
2019-05-03T21:33:35.608Z,48.19
2019-05-03T21:36:01.545Z,48.37
2019-05-03T21:38:27.975Z,48.19
2019-05-03T21:40:54.660Z,48.36
2019-05-03T21:43:20.632Z,48.32
2019-05-03T21:45:46.941Z,48.58
2019-05-03T21:48:14.614Z,48.68
2019-05-03T21:50:39.572Z,48.67
2019-05-03T21:53:06.035Z,48.60
2019-05-03T21:55:32.223Z,48.60
2019-05-03T21:57:58.533Z,48.86
2019-05-03T22:00:24.878Z,48.93
2019-05-03T22:02:51.182Z,49.45
2019-05-03T22:05:17.509Z,49.81
2019-05-03T22:07:44.413Z,49.91
2019-05-03T22:10:10.140Z,49.97
2019-05-03T22:12:36.467Z,49.84
2019-05-03T22:15:02.775Z,50.07
2019-05-03T22:17:29.101Z,50.15
2019-05-03T22:19:55.404Z,50.32
2019-05-03T22:22:21.714Z,50.41
2019-05-03T22:24:48.054Z,50.57
2019-05-03T22:27:15.255Z,50.77
2019-05-03T22:29:40.839Z,50.70
2019-05-03T22:32:07.163Z,50.78
2019-05-03T22:34:34.896Z,50.85
2019-05-03T22:36:59.791Z,51.19
2019-05-03T22:39:26.101Z,51.31
2019-05-03T22:41:52.430Z,51.47
2019-05-03T22:44:18.732Z,51.58
2019-05-03T22:46:45.059Z,51.76
2019-05-03T22:49:11.370Z,51.91
2019-05-03T22:51:37.680Z,51.98
2019-05-03T22:54:04.730Z,52.02
2019-05-03T22:56:30.315Z,52.11
2019-05-03T22:58:56.647Z,52.17
2019-05-03T23:01:22.973Z,52.02
2019-05-03T23:03:49.271Z,52.05
2019-05-03T23:06:22.131Z,52.14
2019-05-03T23:08:41.907Z,52.59
2019-05-03T23:11:08.252Z,53.14
2019-05-03T23:13:34.577Z,53.16
2019-05-03T23:16:00.886Z,53.32
2019-05-03T23:18:27.205Z,53.62
2019-05-03T23:20:55.185Z,54.04
2019-05-03T23:23:19.841Z,54.18
2019-05-03T23:25:46.149Z,54.12
2019-05-03T23:28:14.416Z,54.20
2019-05-03T23:30:38.804Z,54.53
2019-05-03T23:33:05.109Z,54.66
2019-05-03T23:35:31.434Z,54.74
2019-05-03T23:37:57.743Z,54.93
2019-05-03T23:40:25.405Z,54.83
2019-05-03T23:42:50.386Z,54.64
2019-05-03T23:45:16.718Z,54.43
2019-05-03T23:47:44.881Z,54.39
2019-05-03T23:50:09.371Z,54.25
2019-05-03T23:52:35.719Z,54.18
2019-05-03T23:55:02.056Z,54.25
2019-05-03T23:57:28.339Z,54.11
2019-05-03T23:59:56.808Z,54.23
